Terminal Aerodrome Forecast
Issued by NWS

Home | Current Version | Previous Version | Text Only | Print | Product List | Glossary On
Versions: 1 2 3 4 5 6 7 8 9 10 11 12 13 14 15 16
689
FTUS43 KAPX 260524
TAFTVC
TAF
KTVC 260524Z 2606/2706 10006KT P6SM -RA OVC012
     FM261000 11008KT 3SM BR VCSH OVC010
     FM261800 12008KT 1 1/2SM -RA BR OVC015
     FM270000 13004KT 3/4SM BR VCSH OVC003=

USA.gov is the U.S. government's official web portal to all federal, state and local government web resources and services.